Time;durP1;ratioP1;P1;durP2;ratioP2;P2;SDS_P1;SDS_P2;PMS_P1;PMS_P2;Temp;Humidity;BMP_temperature;BMP_pressure;BME280_temperature;BME280_humidity;BME280_pressure;Samples;Min_cycle;Max_cycle;Signal;HPM_P1;HPM_P2
2022/11/08 00:02:27;;;;;;;5.85;1.70;;;12.10;99.90;;;-144.05;74.00;125687.94;5039959;28;20032;-83
2022/11/08 00:04:53;;;;;;;7.45;2.00;;;12.10;99.90;;;-144.05;74.08;125687.94;5041181;28;20116;-79
2022/11/08 00:15:46;;;;;;;12.80;2.30;;;12.10;99.90;;;-144.05;74.25;125687.94;5042127;28;20045;-81
2022/11/08 00:18:12;;;;;;;9.75;1.70;;;12.10;99.90;;;-144.05;73.97;125687.94;5059252;28;20072;-81
2022/11/08 00:20:40;;;;;;;3.90;2.00;;;12.10;99.90;;;-144.05;73.66;125687.94;5048266;28;20109;-79
2022/11/08 00:23:06;;;;;;;9.45;2.20;;;12.10;99.90;;;-144.05;73.97;125687.94;5052648;28;20080;-79
2022/11/08 00:25:32;;;;;;;7.93;2.13;;;12.00;99.90;;;-144.05;73.93;125687.94;5053010;28;20109;-78
2022/11/08 00:27:58;;;;;;;8.52;2.15;;;12.00;99.90;;;-144.05;74.36;125687.94;5039764;28;20053;-81
2022/11/08 00:30:24;;;;;;;7.50;2.42;;;12.00;99.90;;;-144.05;73.87;125687.94;5039471;28;20564;-78
2022/11/08 00:32:49;;;;;;;5.70;1.98;;;11.90;99.90;;;-144.05;74.74;125687.94;5039803;28;20029;-79
2022/11/08 00:35:15;;;;;;;7.55;2.10;;;11.90;99.90;;;-144.05;74.41;125687.94;5037596;28;20051;-78
2022/11/08 00:37:41;;;;;;;7.72;1.90;;;11.90;99.90;;;-144.05;74.41;125687.94;5039236;28;20033;-79
2022/11/08 00:40:08;;;;;;;9.73;1.90;;;11.90;99.90;;;-144.05;74.23;125687.94;5039178;28;20029;-83
2022/11/08 00:42:33;;;;;;;9.18;2.45;;;11.80;99.90;;;-144.05;73.66;125687.94;5036157;28;20030;-80
2022/11/08 00:44:59;;;;;;;8.63;2.20;;;11.80;99.90;;;-144.05;74.16;125687.94;5035864;28;20072;-79
2022/11/08 00:47:25;;;;;;;5.20;1.48;;;11.80;99.90;;;-144.05;74.23;125687.94;5036351;28;20029;-82
2022/11/08 00:49:51;;;;;;;9.35;2.17;;;11.80;99.90;;;-144.05;74.10;125687.94;5036431;28;20040;-81
2022/11/08 00:52:17;;;;;;;8.45;1.90;;;11.80;99.90;;;-144.05;74.16;125687.94;5036911;28;20056;-81
2022/11/08 00:54:43;;;;;;;8.48;2.17;;;11.80;99.90;;;-144.05;74.26;125687.94;5039262;28;20025;-80
2022/11/08 00:57:08;;;;;;;7.35;1.80;;;11.80;99.90;;;-144.05;74.06;125687.94;5051932;28;20061;-80
2022/11/08 00:59:34;;;;;;;7.53;1.92;;;11.80;99.90;;;-144.05;73.70;125687.94;5050852;28;20164;-78
2022/11/08 01:02:00;;;;;;;6.90;1.98;;;11.80;99.90;;;-144.05;73.82;125687.94;5051973;28;20086;-81
2022/11/08 01:04:26;;;;;;;6.40;1.95;;;11.90;99.90;;;-144.05;73.49;125687.94;5053015;28;20124;-79
2022/11/08 01:06:52;;;;;;;8.57;2.63;;;11.90;99.90;;;-144.05;73.33;125687.94;5036958;28;20393;-81
2022/11/08 01:09:18;;;;;;;10.77;2.30;;;11.90;99.90;;;-144.05;72.77;125687.94;5037035;28;20037;-80
2022/11/08 01:11:45;;;;;;;6.00;2.17;;;12.00;99.90;;;-144.05;72.51;125687.94;5036019;28;20090;-82
2022/11/08 01:14:13;;;;;;;9.30;1.95;;;12.10;99.90;;;-144.05;72.48;125687.94;5033802;28;20050;-79
2022/11/08 01:16:41;;;;;;;6.72;1.92;;;12.10;99.90;;;-144.05;71.89;125687.94;5032635;28;20493;-80
2022/11/08 01:19:07;;;;;;;6.55;1.92;;;12.10;99.90;;;-144.05;72.29;125687.94;5034761;28;20029;-80
2022/11/08 01:21:33;;;;;;;4.20;2.03;;;12.20;99.90;;;-144.05;71.99;125687.94;5034284;28;20472;-80
2022/11/08 01:23:59;;;;;;;9.80;1.95;;;12.20;99.90;;;-144.05;71.85;125687.94;5049052;28;20444;-80
2022/11/08 01:26:28;;;;;;;9.35;2.20;;;12.20;99.90;;;-144.05;71.43;125687.94;5033778;28;20037;-80
2022/11/08 01:28:57;;;;;;;9.45;2.00;;;12.30;99.90;;;-144.05;70.78;125687.94;5033511;28;20056;-80
2022/11/08 01:31:30;;;;;;;7.43;1.90;;;12.40;99.90;;;-144.05;70.31;125687.94;5049202;28;20048;-81
2022/11/08 01:33:58;;;;;;;7.15;2.15;;;12.40;99.90;;;-144.05;70.51;125687.94;5050538;28;20033;-79
2022/11/08 01:36:27;;;;;;;4.70;1.63;;;12.40;99.90;;;-144.05;70.90;125687.94;5034877;28;20021;-79
2022/11/08 01:38:55;;;;;;;7.65;1.70;;;12.40;99.90;;;-144.05;70.68;125687.94;5034914;28;20030;-80
2022/11/08 01:41:25;;;;;;;9.60;1.60;;;12.30;99.90;;;-144.05;70.71;125687.94;5032984;28;20021;-78
2022/11/08 01:43:58;;;;;;;6.43;1.65;;;12.30;99.90;;;-144.05;71.15;125687.94;5034952;28;20079;-80
2022/11/08 01:46:35;;;;;;;4.93;1.55;;;12.30;99.90;;;-144.05;71.27;125687.94;5050252;28;20524;-80
2022/11/08 01:49:38;;;;;;;10.32;1.88;;;12.30;99.90;;;-144.05;71.22;125687.94;5038747;28;20053;-80
2022/11/08 01:52:23;;;;;;;5.93;2.15;;;12.20;99.90;;;-144.05;70.93;125687.94;5034153;28;20114;-83
2022/11/08 01:55:12;;;;;;;9.25;1.80;;;12.30;99.90;;;-144.05;71.26;125687.94;5035344;28;20060;-79
2022/11/08 01:58:04;;;;;;;7.68;1.65;;;12.30;99.90;;;-144.05;71.08;125687.94;5035110;28;20034;-82
2022/11/08 02:00:30;;;;;;;8.43;1.88;;;12.30;99.90;;;-144.05;70.63;125687.94;5051574;28;20039;-80
2022/11/08 02:03:00;;;;;;;7.78;1.83;;;12.40;99.90;;;-144.05;70.46;125687.94;5033638;28;20021;-81
2022/11/08 02:05:30;;;;;;;8.20;1.60;;;12.40;99.90;;;-144.05;70.37;125687.94;5035373;28;20029;-82
2022/11/08 02:08:36;;;;;;;9.35;1.50;;;12.40;99.90;;;-144.05;69.89;125687.94;5036191;28;20022;-79
2022/11/08 02:11:06;;;;;;;8.60;2.08;;;12.50;99.90;;;-144.05;69.55;125687.94;5035188;28;20469;-78
2022/11/08 02:13:37;;;;;;;4.72;1.40;;;12.50;99.90;;;-144.05;69.56;125687.94;5034100;28;20471;-80
2022/11/08 02:16:15;;;;;;;9.38;2.08;;;12.50;99.90;;;-144.05;69.73;125687.94;5038711;28;20405;-82
2022/11/08 02:18:45;;;;;;;5.45;1.30;;;12.50;99.90;;;-144.05;69.03;125687.94;5054569;28;20033;-80
2022/11/08 02:22:04;;;;;;;7.10;1.45;;;12.50;99.90;;;-144.05;69.28;125687.94;5038994;28;20042;-80
2022/11/08 02:24:30;;;;;;;6.15;1.63;;;12.60;99.90;;;-144.05;68.57;125687.94;5036656;28;20033;-79
2022/11/08 02:26:58;;;;;;;5.80;1.55;;;12.60;99.90;;;-144.05;68.54;125687.94;5037281;28;20091;-80
2022/11/08 02:29:31;;;;;;;7.60;1.50;;;12.60;99.90;;;-144.05;68.94;125687.94;5038134;28;20469;-82
2022/11/08 02:32:00;;;;;;;6.95;1.73;;;12.50;99.90;;;-144.05;69.13;125687.94;5036387;28;20395;-80
2022/11/08 02:34:39;;;;;;;9.50;2.22;;;12.50;99.90;;;-144.05;69.10;125687.94;5037450;28;20473;-79
2022/11/08 02:37:06;;;;;;;7.43;2.20;;;12.50;99.90;;;-144.05;68.82;125687.94;5039198;28;20037;-81
2022/11/08 02:39:33;;;;;;;4.93;1.63;;;12.60;99.90;;;-144.05;68.64;125687.94;5052088;28;20112;-79
2022/11/08 02:42:01;;;;;;;5.32;1.65;;;12.60;99.90;;;-144.05;68.21;125687.94;5037661;28;20029;-80
2022/11/08 02:44:27;;;;;;;5.30;1.73;;;12.60;99.90;;;-144.05;67.90;125687.94;5036395;28;20017;-81
2022/11/08 02:46:53;;;;;;;6.13;1.58;;;12.70;99.90;;;-144.05;68.05;125687.94;5035901;28;20036;-79
2022/11/08 02:49:19;;;;;;;7.70;1.60;;;12.70;99.90;;;-144.05;67.86;125687.94;5037418;28;20026;-79
2022/11/08 02:51:45;;;;;;;6.45;1.60;;;12.70;99.90;;;-144.05;67.20;125687.94;5035207;28;20411;-80
2022/11/08 02:54:10;;;;;;;4.50;1.42;;;12.70;99.90;;;-144.05;66.51;125687.94;5036470;28;20041;-79
2022/11/08 02:56:36;;;;;;;8.38;1.83;;;12.80;99.90;;;-144.05;66.33;125687.94;5037646;28;20029;-80
2022/11/08 02:59:02;;;;;;;6.82;1.80;;;12.70;99.90;;;-144.05;66.17;125687.94;5051963;28;20065;-81
2022/11/08 03:01:28;;;;;;;7.25;1.75;;;12.80;99.90;;;-144.05;65.73;125687.94;5052119;28;20025;-80
2022/11/08 03:03:54;;;;;;;3.70;1.17;;;12.70;99.90;;;-144.05;65.53;125687.94;5036632;28;20038;-80
2022/11/08 03:06:20;;;;;;;4.65;1.10;;;12.70;99.90;;;-144.05;65.17;125687.94;5036719;28;20092;-80
2022/11/08 03:08:45;;;;;;;6.78;1.30;;;12.80;99.90;;;-144.05;64.50;125687.94;5046967;28;20021;-79
2022/11/08 03:11:11;;;;;;;4.85;1.27;;;12.90;99.90;;;-144.05;64.38;125687.94;5053248;28;20044;-82
2022/11/08 03:13:37;;;;;;;4.95;1.38;;;12.90;99.90;;;-144.05;64.84;125687.94;5053184;28;20087;-82
2022/11/08 03:16:05;;;;;;;4.97;1.60;;;12.90;99.90;;;-144.05;64.94;125687.94;5042959;28;20037;-82
2022/11/08 03:18:31;;;;;;;6.97;1.45;;;12.90;99.90;;;-144.05;65.07;125687.94;5036438;28;20037;-80
2022/11/08 03:21:02;;;;;;;5.50;1.52;;;12.80;99.90;;;-144.05;65.75;125687.94;5042105;28;20029;-81
2022/11/08 03:23:28;;;;;;;4.78;1.30;;;12.70;99.90;;;-144.05;65.21;125687.94;5040515;28;20033;-80
2022/11/08 03:25:54;;;;;;;7.38;1.35;;;12.70;99.90;;;-144.05;65.43;125687.94;5035649;28;20060;-80
2022/11/08 03:28:20;;;;;;;3.20;1.40;;;12.70;99.90;;;-144.05;65.53;125687.94;5034869;28;20041;-79
2022/11/08 03:30:53;;;;;;;6.97;1.75;;;12.60;99.90;;;-144.05;66.00;125687.94;5039609;28;20076;-80
2022/11/08 03:33:20;;;;;;;4.78;1.45;;;12.40;99.90;;;-144.05;66.57;125687.94;5039178;28;20089;-82
2022/11/08 03:35:48;;;;;;;6.53;1.40;;;12.40;99.90;;;-144.05;67.06;125687.94;5040327;28;20089;-81
2022/11/08 03:38:15;;;;;;;3.80;1.08;;;12.20;99.90;;;-144.05;66.75;125687.94;5038876;28;20357;-83
2022/11/08 03:40:44;;;;;;;4.75;1.60;;;12.10;99.90;;;-144.05;67.37;125687.94;5040034;28;20033;-81
2022/11/08 03:43:10;;;;;;;7.75;1.88;;;12.10;99.90;;;-144.05;67.73;125687.94;5041359;28;20105;-83
2022/11/08 03:45:36;;;;;;;5.38;1.30;;;12.00;99.90;;;-144.05;67.94;125687.94;5039335;28;20033;-82
2022/11/08 03:48:03;;;;;;;7.28;1.38;;;12.00;99.90;;;-144.05;67.96;125687.94;5041291;28;20033;-81
2022/11/08 03:50:29;;;;;;;6.82;1.27;;;11.90;99.90;;;-144.05;68.15;125687.94;5039149;28;20037;-80
2022/11/08 03:52:56;;;;;;;8.43;1.65;;;11.90;99.90;;;-144.05;68.97;125687.94;5039943;28;20033;-81
2022/11/08 03:55:26;;;;;;;4.68;1.50;;;11.90;99.90;;;-144.05;68.79;125687.94;5037223;28;20029;-81
2022/11/08 03:57:53;;;;;;;5.28;1.50;;;11.80;99.90;;;-144.05;69.92;125687.94;5039316;28;20071;-82
2022/11/08 04:00:27;;;;;;;4.32;1.20;;;11.80;99.90;;;-144.05;70.41;125687.94;5054596;28;20045;-83
2022/11/08 04:03:01;;;;;;;3.88;1.33;;;11.80;99.90;;;-144.05;69.94;125687.94;5038939;28;20029;-81
2022/11/08 04:05:28;;;;;;;9.48;1.70;;;11.80;99.90;;;-144.05;69.51;125687.94;5040306;28;20033;-82
2022/11/08 04:07:54;;;;;;;7.20;1.52;;;11.80;99.90;;;-144.05;69.40;125687.94;5040337;28;20113;-81
2022/11/08 04:10:20;;;;;;;5.90;1.77;;;11.80;99.90;;;-144.05;69.20;125687.94;5040828;28;20049;-81
2022/11/08 04:15:31;;;;;;;6.38;1.30;;;11.60;99.90;;;-144.05;70.65;125687.94;5052286;28;20052;-80
2022/11/08 04:23:35;;;;;;;6.47;1.40;;;11.40;99.90;;;-144.05;71.45;125687.94;5051422;28;20052;-80
2022/11/08 04:26:07;;;;;;;6.38;1.60;;;11.40;99.90;;;-144.05;71.69;125687.94;5046352;28;20029;-81
2022/11/08 04:28:37;;;;;;;7.15;1.55;;;11.40;99.90;;;-144.05;71.64;125687.94;5035715;28;20076;-79
2022/11/08 04:31:15;;;;;;;9.60;2.05;;;11.40;99.90;;;-144.05;71.84;125687.94;5036466;28;20021;-79
2022/11/08 04:33:41;;;;;;;4.32;1.60;;;11.30;99.90;;;-144.05;72.00;125687.94;5036668;28;20057;-83
2022/11/08 04:36:15;;;;;;;5.57;1.55;;;11.30;99.90;;;-144.05;71.89;125687.94;5036684;28;20029;-81
2022/11/08 04:38:41;;;;;;;5.70;1.95;;;11.30;99.90;;;-144.05;72.41;125687.94;5036529;28;20079;-80
2022/11/08 04:41:14;;;;;;;4.28;1.45;;;11.30;99.90;;;-144.05;72.95;125687.94;5034634;28;20022;-80
2022/11/08 04:43:41;;;;;;;8.00;1.98;;;11.20;99.90;;;-144.05;72.85;125687.94;5034330;28;20028;-80
2022/11/08 04:46:14;;;;;;;6.63;1.33;;;11.20;99.90;;;-144.05;72.98;125687.94;5036182;28;20052;-80
2022/11/08 04:48:43;;;;;;;6.20;1.70;;;11.20;99.90;;;-144.05;72.60;125687.94;5035931;28;20116;-79
2022/11/08 04:51:21;;;;;;;5.78;2.15;;;11.10;99.90;;;-144.05;72.54;125687.94;5035725;28;20029;-80
2022/11/08 04:53:48;;;;;;;5.50;1.52;;;11.10;99.90;;;-144.05;72.36;125687.94;5036522;28;20472;-79
2022/11/08 04:56:20;;;;;;;5.60;1.45;;;11.10;99.90;;;-144.05;73.07;125687.94;5049448;28;20033;-81
2022/11/08 04:58:51;;;;;;;4.88;1.70;;;11.00;99.90;;;-144.05;73.35;125687.94;5052636;28;20037;-81
2022/11/08 05:01:23;;;;;;;4.45;1.38;;;11.00;99.90;;;-144.05;73.77;125687.94;5051070;28;20032;-82
2022/11/08 05:03:52;;;;;;;5.82;1.40;;;11.00;99.90;;;-144.05;73.01;125687.94;5040243;28;20125;-81
2022/11/08 05:06:27;;;;;;;6.80;1.80;;;11.00;99.90;;;-144.05;72.73;125687.94;5039991;28;20029;-81
2022/11/08 05:08:56;;;;;;;8.47;1.83;;;11.00;99.90;;;-144.05;72.87;125687.94;5037092;28;20025;-82
2022/11/08 05:11:26;;;;;;;6.05;1.40;;;11.10;99.90;;;-144.05;72.62;125687.94;5039288;28;20141;-81
2022/11/08 05:13:52;;;;;;;6.65;1.42;;;11.10;99.90;;;-144.05;72.63;125687.94;5037202;28;20120;-81
2022/11/08 05:16:28;;;;;;;4.57;1.52;;;11.00;99.90;;;-144.05;72.64;125687.94;5037735;28;20034;-81
2022/11/08 05:18:54;;;;;;;3.60;1.42;;;11.00;99.90;;;-144.05;72.78;125687.94;5033985;28;20064;-80
2022/11/08 05:24:12;;;;;;;4.72;1.40;;;11.00;99.90;;;-144.05;72.50;125687.94;5035286;28;20508;-81
2022/11/08 05:26:44;;;;;;;3.97;1.48;;;11.00;99.90;;;-144.05;73.06;125687.94;5036100;28;20042;-80
2022/11/08 05:29:13;;;;;;;4.18;1.58;;;10.90;99.90;;;-144.05;72.73;125687.94;5034060;28;20454;-80
2022/11/08 05:31:40;;;;;;;6.72;1.70;;;10.90;99.90;;;-144.05;72.85;125687.94;5036240;28;20043;-80
2022/11/08 05:34:06;;;;;;;6.20;1.67;;;10.90;99.90;;;-144.05;72.92;125687.94;5033343;28;20036;-79
2022/11/08 05:36:35;;;;;;;3.83;1.85;;;10.80;99.90;;;-144.05;72.82;125687.94;5035267;28;20480;-81
2022/11/08 05:39:01;;;;;;;3.95;1.48;;;10.90;99.90;;;-144.05;72.47;125687.94;5035313;28;20444;-81
2022/11/08 05:41:28;;;;;;;5.00;1.70;;;10.90;99.90;;;-144.05;72.28;125687.94;5034974;28;20407;-79
2022/11/08 05:43:55;;;;;;;3.03;1.55;;;10.90;99.90;;;-144.05;71.73;125687.94;5035537;28;20041;-81
2022/11/08 05:46:23;;;;;;;6.30;1.98;;;10.90;99.90;;;-144.05;71.60;125687.94;5034001;28;20025;-80
2022/11/08 05:48:50;;;;;;;5.60;2.03;;;10.80;99.90;;;-144.05;71.52;125687.94;5041556;28;20052;-80
2022/11/08 05:51:18;;;;;;;5.50;1.77;;;10.80;99.90;;;-144.05;71.70;125687.94;5043836;28;20516;-82
2022/11/08 05:53:45;;;;;;;3.75;1.50;;;10.80;99.90;;;-144.05;71.34;125687.94;5047965;28;20044;-83
2022/11/08 05:56:11;;;;;;;8.90;1.80;;;10.90;99.90;;;-144.05;70.76;125687.94;5059120;28;20056;-81
2022/11/08 05:58:37;;;;;;;6.70;2.22;;;11.00;99.90;;;-144.05;70.36;125687.94;5054935;28;20105;-80
2022/11/08 06:01:12;;;;;;;4.20;1.70;;;11.10;99.90;;;-144.05;70.03;125687.94;5053743;28;20231;-82
2022/11/08 06:03:39;;;;;;;5.80;1.70;;;11.00;99.90;;;-144.05;70.17;125687.94;5053307;28;20029;-80
2022/11/08 06:06:12;;;;;;;6.35;2.40;;;11.00;99.90;;;-144.05;69.82;125687.94;5054744;28;20029;-80
2022/11/08 06:08:40;;;;;;;3.22;1.58;;;11.00;99.90;;;-144.05;69.67;125687.94;5039142;28;20477;-82
2022/11/08 06:11:13;;;;;;;5.00;1.60;;;11.00;99.90;;;-144.05;69.27;125687.94;5037041;28;20037;-79
2022/11/08 06:13:40;;;;;;;4.80;1.48;;;11.10;99.90;;;-144.05;68.81;125687.94;5039337;28;20060;-80
2022/11/08 06:16:11;;;;;;;3.03;1.90;;;11.10;99.90;;;-144.05;68.71;125687.94;5055293;28;20029;-81
2022/11/08 06:18:39;;;;;;;8.57;2.42;;;11.00;99.90;;;-144.05;68.54;125687.94;5038253;28;20030;-81
2022/11/08 06:21:10;;;;;;;4.03;2.00;;;11.00;99.90;;;-144.05;68.90;125687.94;5039945;28;20060;-82
2022/11/08 06:23:36;;;;;;;4.65;1.90;;;11.10;99.90;;;-144.05;68.54;125687.94;5056365;28;20030;-81
2022/11/08 06:26:03;;;;;;;4.70;1.80;;;11.10;99.90;;;-144.05;68.13;125687.94;5055039;28;20021;-80
2022/11/08 06:28:29;;;;;;;6.43;2.72;;;11.10;99.90;;;-144.05;68.03;125687.94;5040451;28;20029;-82
2022/11/08 06:30:59;;;;;;;5.07;1.88;;;11.10;99.90;;;-144.05;67.88;125687.94;5046517;28;20103;-80
2022/11/08 06:33:25;;;;;;;7.43;2.45;;;11.20;99.90;;;-144.05;67.71;125687.94;5039406;28;20064;-80
2022/11/08 06:35:52;;;;;;;7.00;1.85;;;11.20;99.90;;;-144.05;67.05;125687.94;5038776;28;20488;-77
2022/11/08 06:38:18;;;;;;;5.85;1.88;;;11.20;99.90;;;-144.05;66.67;125687.94;5038623;28;20249;-79
2022/11/08 06:40:44;;;;;;;7.07;1.63;;;11.30;99.90;;;-144.05;66.05;125687.94;5038526;28;20060;-76
2022/11/08 06:43:11;;;;;;;4.15;1.60;;;11.30;99.90;;;-144.05;66.06;125687.94;5052155;28;20065;-79
2022/11/08 06:45:37;;;;;;;5.07;1.48;;;11.30;99.90;;;-144.05;65.48;125687.94;5038517;28;20030;-78
2022/11/08 06:48:06;;;;;;;7.05;2.22;;;11.30;99.90;;;-144.05;65.12;125687.94;5036981;28;20053;-80
2022/11/08 06:50:35;;;;;;;4.35;1.27;;;11.40;99.90;;;-144.05;64.79;125687.94;5036642;28;20396;-79
2022/11/08 06:53:09;;;;;;;2.90;1.40;;;11.50;99.90;;;-144.05;64.48;125687.94;5035030;28;20123;-78
2022/11/08 06:55:35;;;;;;;4.13;1.20;;;11.60;99.90;;;-144.05;64.09;125687.94;5036339;28;20030;-78
2022/11/08 06:58:03;;;;;;;5.43;1.30;;;11.70;99.90;;;-144.05;63.12;125687.94;5037193;28;20033;-79
2022/11/08 07:00:29;;;;;;;3.88;1.35;;;11.80;99.90;;;-144.05;62.35;125687.94;5038392;28;20036;-81
2022/11/08 07:02:59;;;;;;;3.22;1.48;;;11.70;99.90;;;-144.05;62.05;125687.94;5039242;28;20369;-81
2022/11/08 07:05:28;;;;;;;3.50;1.20;;;11.70;99.90;;;-144.05;61.86;125687.94;5040145;28;20049;-80
2022/11/08 07:07:57;;;;;;;6.25;1.00;;;11.90;99.90;;;-144.05;61.28;125687.94;5037847;28;20500;-77
2022/11/08 07:10:30;;;;;;;8.07;1.48;;;12.00;99.90;;;-144.05;60.93;125687.94;5039064;28;20052;-78
2022/11/08 07:13:14;;;;;;;3.50;1.10;;;12.10;99.90;;;-144.05;59.77;125687.94;5055239;28;20052;-80
2022/11/08 07:15:41;;;;;;;1.90;1.13;;;12.20;99.90;;;-144.05;59.07;125687.94;5036368;28;20470;-81
2022/11/08 07:18:12;;;;;;;3.40;1.35;;;12.40;99.90;;;-144.05;58.60;125687.94;5036508;28;20044;-79
2022/11/08 07:20:39;;;;;;;3.78;1.20;;;12.50;99.90;;;-144.05;57.81;125687.94;5036357;28;20084;-79
2022/11/08 07:23:07;;;;;;;3.58;1.20;;;12.70;99.90;;;-144.05;56.78;125687.94;5034938;28;20022;-79
2022/11/08 07:25:34;;;;;;;3.65;1.00;;;12.90;99.90;;;-144.05;55.98;125687.94;5036142;28;20071;-79
2022/11/08 07:28:06;;;;;;;3.65;0.98;;;13.10;99.90;;;-144.05;55.11;125687.94;5037536;28;20026;-78
2022/11/08 07:30:34;;;;;;;2.83;1.15;;;13.30;99.90;;;-144.05;55.20;125687.94;5040858;28;20063;-80
2022/11/08 07:33:01;;;;;;;3.25;1.10;;;13.40;99.90;;;-144.05;53.64;125687.94;5039174;28;20076;-79
2022/11/08 07:35:27;;;;;;;2.55;0.88;;;13.50;99.90;;;-144.05;54.23;125687.94;5037916;28;20029;-79
2022/11/08 07:37:55;;;;;;;2.17;0.77;;;13.50;99.90;;;-144.05;53.84;125687.94;5036849;28;20067;-78
2022/11/08 07:40:21;;;;;;;5.57;0.90;;;13.60;99.90;;;-144.05;52.63;125687.94;5037048;28;20068;-80
2022/11/08 07:42:47;;;;;;;2.47;1.00;;;13.80;99.90;;;-144.05;52.10;125687.94;5037474;28;20042;-81
2022/11/08 07:45:13;;;;;;;6.35;0.80;;;14.00;99.90;;;-144.05;51.73;125687.94;5036959;28;20410;-80
2022/11/08 07:47:39;;;;;;;3.42;0.88;;;14.10;99.90;;;-144.05;51.75;125687.94;5037148;28;20116;-78
2022/11/08 07:50:06;;;;;;;4.07;0.90;;;14.20;99.90;;;-144.05;50.53;125687.94;5051893;28;20457;-79
2022/11/08 07:52:31;;;;;;;2.85;0.85;;;14.50;99.90;;;-144.05;50.41;125687.94;5036464;28;20029;-77
2022/11/08 07:54:57;;;;;;;3.45;0.95;;;14.70;99.90;;;-144.05;49.95;125687.94;5037056;28;20029;-78
2022/11/08 07:57:23;;;;;;;1.77;0.90;;;14.70;99.90;;;-144.05;49.39;125687.94;5038253;28;20036;-78
2022/11/08 07:59:49;;;;;;;2.05;0.55;;;14.80;99.90;;;-144.05;49.86;125687.94;5036790;28;20037;-79
2022/11/08 08:02:15;;;;;;;3.22;0.80;;;14.90;99.90;;;-144.05;49.38;125687.94;5051687;28;20025;-80
2022/11/08 08:04:41;;;;;;;2.83;0.82;;;15.00;99.90;;;-144.05;49.07;125687.94;5036808;28;20028;-81
2022/11/08 08:07:07;;;;;;;2.50;0.60;;;15.00;99.90;;;-144.05;49.08;125687.94;5036819;28;20112;-79
2022/11/08 08:09:33;;;;;;;3.10;1.00;;;15.10;99.90;;;-144.05;48.92;125687.94;5037198;28;20108;-81
2022/11/08 08:12:00;;;;;;;1.50;0.77;;;15.00;99.90;;;-144.05;49.07;125687.94;5037287;28;20060;-78
2022/11/08 08:14:26;;;;;;;2.15;1.15;;;14.80;99.90;;;-144.05;49.65;125687.94;5037997;28;20043;-80
2022/11/08 08:16:52;;;;;;;1.60;0.85;;;14.70;99.90;;;-144.05;49.96;125687.94;5038340;28;20026;-78
2022/11/08 08:19:18;;;;;;;1.77;0.93;;;14.70;99.90;;;-144.05;49.86;125687.94;5036375;28;20613;-77
2022/11/08 08:21:44;;;;;;;1.17;0.70;;;14.70;99.90;;;-144.05;48.92;125687.94;5034227;28;20028;-78
2022/11/08 08:24:10;;;;;;;3.55;1.13;;;15.00;99.90;;;-144.05;48.57;125687.94;5036077;28;20033;-81
2022/11/08 08:26:37;;;;;;;1.98;0.80;;;15.20;99.90;;;-144.05;48.56;125687.94;5035896;28;20044;-81
2022/11/08 08:29:03;;;;;;;3.42;1.10;;;15.40;99.90;;;-144.05;48.45;125687.94;5039117;28;20056;-78
2022/11/08 08:31:28;;;;;;;1.77;1.00;;;15.60;99.90;;;-144.05;47.58;125687.94;5035906;28;20489;-77
2022/11/08 08:33:55;;;;;;;1.63;0.90;;;15.60;99.90;;;-144.05;48.82;125687.94;5034844;28;20033;-77
2022/11/08 08:36:21;;;;;;;4.40;0.95;;;15.50;99.90;;;-144.05;48.20;125687.94;5036520;28;20029;-80
2022/11/08 08:38:47;;;;;;;2.05;0.80;;;15.50;99.90;;;-144.05;47.51;125687.94;5035836;28;20041;-80
2022/11/08 08:41:12;;;;;;;1.30;0.80;;;15.80;99.90;;;-144.05;47.65;125687.94;5036001;28;20495;-80
2022/11/08 08:43:38;;;;;;;3.67;0.68;;;16.00;99.90;;;-144.05;47.46;125687.94;5039445;28;20318;-82
2022/11/08 08:46:06;;;;;;;1.20;0.85;;;16.10;99.90;;;-144.05;46.76;125687.94;5049637;28;20083;-78
2022/11/08 08:48:32;;;;;;;2.25;0.95;;;16.30;99.90;;;-144.05;46.73;125687.94;5049956;28;20048;-79
2022/11/08 08:50:59;;;;;;;1.92;0.80;;;16.40;99.90;;;-144.05;46.53;125687.94;5043533;28;20029;-81
2022/11/08 08:53:25;;;;;;;32.97;2.75;;;16.50;99.90;;;-144.05;47.97;125687.94;5035343;28;20143;-80
2022/11/08 08:55:51;;;;;;;2.33;0.73;;;16.20;99.90;;;-144.05;47.88;125687.94;5036674;28;20053;-78
2022/11/08 08:58:20;;;;;;;2.17;0.93;;;16.00;99.90;;;-144.05;47.36;125687.94;5035107;28;20025;-79
2022/11/08 09:00:47;;;;;;;2.38;0.82;;;16.00;99.90;;;-144.05;48.01;125687.94;5034490;28;20046;-80
2022/11/08 09:03:14;;;;;;;3.78;0.93;;;16.00;99.90;;;-144.05;46.69;125687.94;5051560;28;20477;-78
2022/11/08 09:05:45;;;;;;;3.83;1.05;;;16.10;99.90;;;-144.05;47.08;125687.94;5036205;28;20460;-80
2022/11/08 09:08:13;;;;;;;2.05;0.80;;;16.00;99.90;;;-144.05;47.02;125687.94;5043928;28;20038;-79
2022/11/08 09:10:40;;;;;;;1.67;0.85;;;16.00;99.90;;;-144.05;47.00;125687.94;5036881;28;20033;-78
2022/11/08 09:13:06;;;;;;;2.80;1.08;;;16.00;99.90;;;-144.05;47.34;125687.94;5036051;28;20029;-79
2022/11/08 09:15:32;;;;;;;2.47;0.90;;;15.80;99.90;;;-144.05;47.99;125687.94;5035867;28;20041;-78
2022/11/08 09:17:58;;;;;;;1.92;0.70;;;15.70;99.90;;;-144.05;48.30;125687.94;5034645;28;20084;-77
2022/11/08 09:20:25;;;;;;;2.53;1.08;;;15.70;99.90;;;-144.05;47.86;125687.94;5035014;28;20032;-78
2022/11/08 09:22:50;;;;;;;2.42;0.80;;;15.70;99.90;;;-144.05;47.29;125687.94;5035674;28;20029;-79
2022/11/08 09:25:17;;;;;;;2.00;0.80;;;15.80;99.90;;;-144.05;46.38;125687.94;5035716;28;20029;-79
2022/11/08 09:27:43;;;;;;;1.67;0.95;;;15.90;99.90;;;-144.05;46.85;125687.94;5035572;28;20033;-78
2022/11/08 09:30:09;;;;;;;4.25;0.73;;;15.90;99.90;;;-144.05;46.38;125687.94;5049989;28;20037;-80
2022/11/08 09:32:35;;;;;;;2.67;1.08;;;15.90;99.90;;;-144.05;46.50;125687.94;5035282;28;20044;-81
2022/11/08 09:35:01;;;;;;;3.92;1.00;;;15.90;99.90;;;-144.05;46.28;125687.94;5033798;28;20026;-79
2022/11/08 09:37:28;;;;;;;5.22;1.30;;;15.90;99.90;;;-144.05;47.04;125687.94;5034192;28;20025;-80
2022/11/08 09:39:54;;;;;;;4.10;1.63;;;15.80;99.90;;;-144.05;46.73;125687.94;5038811;28;20021;-77
2022/11/08 09:42:25;;;;;;;4.07;1.38;;;15.80;99.90;;;-144.05;46.92;125687.94;5047960;28;20025;-79
2022/11/08 09:45:14;;;;;;;1.75;0.90;;;15.80;99.90;;;-144.05;46.37;125687.94;5049576;28;20038;-76
2022/11/08 09:47:45;;;;;;;3.30;1.33;;;15.80;99.90;;;-144.05;46.10;125687.94;5056718;28;20180;-80
2022/11/08 09:50:29;;;;;;;5.90;1.05;;;15.90;99.90;;;-144.05;45.18;125687.94;5035477;28;20422;-79
2022/11/08 09:53:46;;;;;;;2.50;1.40;;;16.00;99.90;;;-144.05;45.31;125687.94;5050646;28;20095;-81
2022/11/08 09:56:24;;;;;;;2.85;1.00;;;16.00;99.90;;;-144.05;45.64;125687.94;5040239;28;20413;-78
2022/11/08 09:59:36;;;;;;;2.13;0.85;;;15.90;99.90;;;-144.05;45.41;125687.94;5034600;28;20493;-80
2022/11/08 10:02:17;;;;;;;3.42;1.08;;;16.00;99.90;;;-144.05;45.44;125687.94;5034033;28;20426;-79
2022/11/08 10:05:01;;;;;;;4.57;1.42;;;16.00;99.90;;;-144.05;45.90;125687.94;5033385;28;20037;-80
2022/11/08 10:07:55;;;;;;;2.05;1.00;;;16.10;99.90;;;-144.05;45.74;125687.94;5035288;28;20049;-79
2022/11/08 10:10:39;;;;;;;3.30;1.38;;;16.10;99.90;;;-144.05;45.96;125687.94;5035757;28;20112;-80
2022/11/08 10:13:28;;;;;;;3.38;1.38;;;16.00;99.90;;;-144.05;46.13;125687.94;5050014;28;20034;-80
2022/11/08 10:16:32;;;;;;;3.40;1.30;;;15.90;99.90;;;-144.05;46.99;125687.94;5035296;28;20108;-79
2022/11/08 10:19:09;;;;;;;4.32;1.33;;;15.80;99.90;;;-144.05;46.95;125687.94;5034409;28;20037;-78
2022/11/08 10:22:39;;;;;;;3.03;1.30;;;15.70;99.90;;;-144.05;47.73;125687.94;5050330;28;20038;-80
2022/11/08 10:25:31;;;;;;;3.75;1.10;;;15.60;99.90;;;-144.05;47.96;125687.94;5021629;28;20049;-80
2022/11/08 10:28:02;;;;;;;3.20;0.90;;;15.60;99.90;;;-144.05;48.15;125687.94;5049819;28;20022;-79
2022/11/08 10:30:41;;;;;;;8.68;1.40;;;15.60;99.90;;;-144.05;47.70;125687.94;5034359;28;20130;-76
2022/11/08 10:33:51;;;;;;;4.32;1.52;;;15.50;99.90;;;-144.05;48.20;125687.94;5033308;28;20036;-80